createdAt,value
2019-03-04T00:00:56.768Z,1.00
2019-03-04T00:05:15.026Z,0.90
2019-03-04T00:09:33.441Z,0.80
2019-03-04T00:13:51.432Z,1.00
2019-03-04T00:18:09.587Z,0.87
2019-03-04T00:22:27.710Z,1.27
2019-03-04T00:26:45.864Z,0.83
2019-03-04T00:31:04.359Z,0.80
2019-03-04T00:35:23.437Z,0.70
2019-03-04T00:39:41.877Z,0.80
2019-03-04T00:44:00.110Z,0.90
2019-03-04T00:48:18.213Z,0.73
2019-03-04T00:52:36.408Z,0.90
2019-03-04T00:56:54.562Z,0.80
2019-03-04T01:01:12.714Z,0.73
2019-03-04T01:05:31.079Z,0.80
2019-03-04T01:09:49.323Z,0.77
2019-03-04T01:14:07.582Z,0.90
2019-03-04T01:18:25.801Z,1.00
2019-03-04T01:22:45.427Z,0.80
2019-03-04T01:27:04.001Z,0.73
2019-03-04T01:31:22.194Z,0.70
2019-03-04T01:35:40.604Z,0.67
2019-03-04T01:39:58.928Z,0.70
2019-03-04T01:44:17.665Z,0.80
2019-03-04T01:48:36.305Z,0.80
2019-03-04T01:52:54.440Z,0.70
2019-03-04T01:57:13.145Z,0.90
2019-03-04T02:01:31.397Z,0.80
2019-03-04T02:05:50.685Z,0.80
2019-03-04T02:10:12.043Z,1.00
2019-03-04T02:14:30.203Z,0.80
2019-03-04T02:18:48.861Z,0.63
2019-03-04T02:23:07.075Z,0.97
2019-03-04T02:27:25.313Z,0.60
2019-03-04T02:31:43.527Z,0.70
2019-03-04T02:36:01.864Z,0.80
2019-03-04T02:40:20.132Z,0.70
2019-03-04T02:44:38.295Z,0.60
2019-03-04T02:48:56.725Z,0.70
2019-03-04T02:53:15.251Z,0.80
2019-03-04T02:57:33.748Z,0.70
2019-03-04T03:01:51.943Z,0.70
2019-03-04T03:06:10.160Z,0.80
2019-03-04T03:10:28.439Z,1.00
2019-03-04T03:14:46.671Z,0.80
2019-03-04T03:19:04.847Z,0.80
2019-03-04T03:23:23.274Z,0.90
2019-03-04T03:27:41.695Z,0.80
2019-03-04T03:32:00.297Z,0.80
2019-03-04T03:36:18.493Z,0.90
2019-03-04T03:40:36.672Z,0.70
2019-03-04T03:44:55.309Z,0.80
2019-03-04T03:49:13.491Z,0.70
2019-03-04T03:53:31.666Z,0.70
2019-03-04T03:57:49.909Z,0.80
2019-03-04T04:02:08.031Z,0.80
2019-03-04T04:06:26.208Z,0.73
2019-03-04T04:10:44.710Z,0.70
2019-03-04T04:15:07.046Z,0.93
2019-03-04T04:19:25.367Z,0.73
2019-03-04T04:23:44.631Z,0.80
2019-03-04T04:28:05.077Z,0.73
2019-03-04T04:32:23.195Z,0.70
2019-03-04T04:36:41.960Z,0.90
2019-03-04T04:41:00.684Z,0.80
2019-03-04T04:45:19.237Z,0.80
2019-03-04T04:49:37.867Z,0.90
2019-03-04T04:53:56.268Z,0.90
2019-03-04T04:58:14.460Z,0.80
2019-03-04T05:02:32.687Z,0.90
2019-03-04T05:06:51.063Z,0.70
2019-03-04T05:11:09.217Z,0.70
2019-03-04T05:15:27.389Z,0.87
2019-03-04T05:19:45.608Z,0.70
2019-03-04T05:24:04.779Z,0.70
2019-03-04T05:28:22.957Z,0.77
2019-03-04T05:32:41.054Z,0.80
2019-03-04T05:36:59.540Z,0.70
2019-03-04T05:41:17.819Z,0.80
2019-03-04T05:45:36.026Z,0.70
2019-03-04T05:49:54.298Z,0.73
2019-03-04T05:54:12.888Z,0.70
2019-03-04T05:58:31.080Z,0.80
2019-03-04T06:02:49.619Z,0.90
2019-03-04T06:07:11.835Z,0.70
2019-03-04T06:11:30.336Z,0.67
2019-03-04T06:15:48.622Z,0.80
2019-03-04T06:20:07.490Z,0.90
2019-03-04T06:24:26.183Z,0.77
2019-03-04T06:28:44.316Z,0.70
2019-03-04T06:33:03.005Z,0.97
2019-03-04T06:37:21.583Z,0.90
2019-03-04T06:41:39.784Z,0.80
2019-03-04T06:45:57.882Z,0.67
2019-03-04T06:50:50.909Z,0.73
2019-03-04T06:56:17.340Z,0.80
2019-03-04T07:01:05.434Z,0.80
2019-03-04T07:05:55.024Z,0.90
2019-03-04T07:10:13.240Z,0.90
2019-03-04T07:14:34.877Z,0.77
2019-03-04T07:18:53.128Z,0.80
2019-03-04T07:23:13.380Z,1.00
2019-03-04T07:27:32.042Z,0.70
2019-03-04T07:31:52.808Z,0.90
2019-03-04T07:36:11.072Z,0.90
2019-03-04T07:40:33.202Z,0.90
2019-03-04T07:44:53.959Z,0.80
2019-03-04T07:49:13.995Z,0.90
2019-03-04T07:53:45.818Z,1.07
2019-03-04T07:57:55.748Z,0.90
2019-03-04T08:02:14.106Z,1.00
2019-03-04T08:06:32.790Z,1.10
2019-03-04T08:12:05.088Z,1.20
2019-03-04T08:16:23.741Z,1.60
2019-03-04T08:20:42.026Z,1.97
2019-03-04T08:25:00.332Z,2.30
2019-03-04T08:29:18.454Z,1.37
2019-03-04T08:33:36.639Z,1.30
2019-03-04T08:37:55.287Z,1.47
2019-03-04T08:42:14.955Z,1.30
2019-03-04T08:46:33.485Z,1.00
2019-03-04T08:50:51.987Z,0.90
2019-03-04T08:55:12.685Z,0.90
2019-03-04T08:59:30.811Z,1.07
2019-03-04T09:03:49.291Z,0.80
2019-03-04T09:08:07.527Z,0.83
2019-03-04T09:12:26.041Z,0.90
2019-03-04T09:16:44.631Z,0.90
2019-03-04T09:21:04.376Z,0.80
2019-03-04T09:25:44.880Z,1.00
2019-03-04T09:30:03.149Z,0.70
2019-03-04T09:34:21.868Z,1.00
2019-03-04T09:38:41.894Z,0.90
2019-03-04T09:43:00.444Z,0.80
2019-03-04T09:47:18.503Z,0.80
2019-03-04T09:51:37.776Z,0.80
2019-03-04T09:55:56.408Z,0.70
2019-03-04T10:01:06.461Z,0.73
2019-03-04T10:06:07.563Z,0.80
2019-03-04T10:11:21.007Z,0.87
2019-03-04T10:16:51.377Z,0.97
2019-03-04T10:21:42.047Z,0.90
2019-03-04T10:26:46.028Z,0.80
2019-03-04T10:32:02.915Z,1.20
2019-03-04T10:37:19.310Z,0.80
2019-03-04T10:42:22.522Z,0.90
2019-03-04T10:47:10.433Z,1.07
2019-03-04T10:51:28.665Z,0.90
2019-03-04T10:55:48.110Z,0.90
2019-03-04T11:00:15.299Z,0.90
2019-03-04T11:04:34.887Z,1.10
2019-03-04T11:08:53.117Z,0.87
2019-03-04T11:13:11.503Z,1.03
2019-03-04T11:17:29.757Z,1.00
2019-03-04T11:21:48.327Z,0.90
2019-03-04T11:26:07.420Z,1.00
2019-03-04T11:30:30.322Z,1.20
2019-03-04T11:34:48.556Z,0.83
2019-03-04T11:39:47.147Z,1.10
2019-03-04T11:44:07.673Z,0.90
2019-03-04T11:48:25.926Z,1.10
2019-03-04T11:52:44.494Z,1.33
2019-03-04T11:57:02.625Z,1.00
2019-03-04T12:01:55.165Z,1.00
2019-03-04T12:06:13.574Z,0.90
2019-03-04T12:10:31.866Z,1.13
2019-03-04T12:14:50.066Z,1.50
2019-03-04T12:19:08.330Z,1.10
2019-03-04T12:23:26.510Z,1.30
2019-03-04T12:27:44.790Z,0.90
2019-03-04T12:32:07.794Z,0.90
2019-03-04T12:36:27.110Z,1.10
2019-03-04T12:40:45.264Z,1.10
2019-03-04T12:45:03.488Z,1.07
2019-03-04T12:49:21.815Z,1.30
2019-03-04T12:53:41.504Z,1.10
2019-03-04T12:57:59.994Z,1.10
2019-03-04T13:02:18.178Z,1.10
2019-03-04T13:06:36.681Z,1.37
2019-03-04T13:10:54.896Z,1.10
2019-03-04T13:15:17.422Z,1.00
2019-03-04T13:19:36.625Z,1.50
2019-03-04T13:23:55.278Z,1.63
2019-03-04T13:28:14.213Z,1.67
2019-03-04T13:32:32.559Z,1.30
2019-03-04T13:36:51.008Z,1.53
2019-03-04T13:41:11.034Z,1.20
2019-03-04T13:45:29.687Z,1.60
2019-03-04T13:49:48.209Z,1.47
2019-03-04T13:54:06.450Z,1.37
2019-03-04T13:58:24.654Z,1.13
2019-03-04T14:02:42.851Z,1.10
2019-03-04T14:07:01.307Z,1.13
2019-03-04T14:11:19.659Z,1.47
2019-03-04T14:15:40.213Z,1.40
2019-03-04T14:19:58.712Z,1.47
2019-03-04T14:24:17.497Z,1.10
2019-03-04T14:28:36.222Z,1.10
2019-03-04T14:32:54.481Z,0.90
2019-03-04T14:37:12.729Z,1.23
2019-03-04T14:41:33.862Z,1.20
2019-03-04T14:45:54.235Z,1.50
2019-03-04T14:50:14.923Z,1.40
2019-03-04T14:54:33.346Z,1.30
2019-03-04T14:59:09.822Z,1.10
2019-03-04T15:03:19.908Z,1.10
2019-03-04T15:07:31.251Z,0.93
2019-03-04T15:11:49.560Z,1.33
2019-03-04T15:16:09.148Z,1.27
2019-03-04T15:20:28.245Z,1.83
2019-03-04T15:24:46.897Z,1.00
2019-03-04T15:29:07.179Z,0.97
2019-03-04T15:33:25.099Z,1.10
2019-03-04T15:37:43.552Z,1.23
2019-03-04T15:42:01.746Z,1.30
2019-03-04T15:46:20.225Z,1.80
2019-03-04T15:50:38.400Z,1.60
2019-03-04T15:54:56.622Z,1.50
2019-03-04T15:59:14.716Z,1.07
2019-03-04T16:03:33.125Z,1.20
2019-03-04T16:07:51.396Z,0.80
2019-03-04T16:12:10.222Z,1.10
2019-03-04T16:16:28.505Z,0.80
2019-03-04T16:20:47.202Z,0.80
2019-03-04T16:25:06.686Z,0.80
2019-03-04T16:29:25.042Z,0.70
2019-03-04T16:33:43.738Z,0.70
2019-03-04T16:38:02.025Z,0.80
2019-03-04T16:42:20.983Z,0.80
2019-03-04T16:46:39.215Z,0.70
2019-03-04T16:50:58.877Z,0.60
2019-03-04T16:55:17.810Z,0.70
2019-03-04T16:59:36.154Z,0.60
2019-03-04T17:03:55.205Z,0.90
2019-03-04T17:08:13.878Z,1.00
2019-03-04T17:12:32.248Z,1.33
2019-03-04T17:16:50.946Z,0.93
2019-03-04T17:21:09.444Z,1.00
2019-03-04T17:25:28.173Z,0.87
2019-03-04T17:29:46.556Z,0.73
2019-03-04T17:34:05.256Z,0.80
2019-03-04T17:38:23.760Z,0.80
2019-03-04T17:42:42.105Z,0.93
2019-03-04T17:47:00.488Z,1.00
2019-03-04T17:51:19.530Z,0.80
2019-03-04T17:55:38.248Z,0.80
2019-03-04T17:59:57.286Z,0.80
2019-03-04T18:04:15.746Z,0.80
2019-03-04T18:08:35.416Z,0.80
2019-03-04T18:12:54.457Z,0.80
2019-03-04T18:17:12.890Z,0.80
2019-03-04T18:21:31.331Z,0.77
2019-03-04T18:25:57.845Z,0.80
2019-03-04T18:31:04.924Z,0.70
2019-03-04T18:36:00.812Z,0.80
2019-03-04T18:41:20.699Z,1.00
2019-03-04T18:46:42.325Z,0.90
2019-03-04T18:51:01.170Z,0.80
2019-03-04T18:55:21.778Z,0.70
2019-03-04T18:59:40.020Z,0.80
2019-03-04T19:03:58.278Z,1.00
2019-03-04T19:08:17.045Z,1.00
2019-03-04T19:12:36.785Z,0.90
2019-03-04T19:16:55.005Z,0.90
2019-03-04T19:21:13.664Z,0.80
2019-03-04T19:25:32.240Z,1.00
2019-03-04T19:29:51.360Z,0.80
2019-03-04T19:34:13.122Z,0.80
2019-03-04T19:38:31.502Z,0.77
2019-03-04T19:42:49.900Z,0.90
2019-03-04T19:47:08.723Z,0.80
2019-03-04T19:51:27.569Z,0.80
2019-03-04T19:55:46.254Z,0.73
2019-03-04T20:00:05.451Z,0.80
2019-03-04T20:04:24.215Z,0.80
2019-03-04T20:08:44.547Z,0.67
2019-03-04T20:13:04.409Z,0.70
2019-03-04T20:17:23.175Z,0.77
2019-03-04T20:21:45.374Z,0.70
2019-03-04T20:26:06.196Z,0.73
2019-03-04T20:30:25.681Z,0.73
2019-03-04T20:34:45.874Z,0.70
2019-03-04T20:39:09.253Z,0.60
2019-03-04T20:43:28.339Z,0.70
2019-03-04T20:47:51.297Z,0.60
2019-03-04T20:52:12.817Z,0.63
2019-03-04T20:56:31.246Z,0.70
2019-03-04T21:00:51.047Z,0.70
2019-03-04T21:05:11.451Z,0.70
2019-03-04T21:09:36.710Z,0.60
2019-03-04T21:14:00.933Z,0.70
2019-03-04T21:18:21.496Z,0.60
2019-03-04T21:22:41.389Z,0.70
2019-03-04T21:27:00.123Z,0.70
2019-03-04T21:32:04.469Z,0.60
2019-03-04T21:36:55.041Z,0.67
2019-03-04T21:41:56.021Z,0.63
2019-03-04T21:47:01.695Z,0.70
2019-03-04T21:52:05.647Z,0.70
2019-03-04T21:57:17.136Z,0.60
2019-03-04T22:01:42.136Z,0.60
2019-03-04T22:06:02.211Z,0.80
2019-03-04T22:10:22.122Z,0.70
2019-03-04T22:14:40.481Z,0.60
2019-03-04T22:18:59.164Z,0.70
2019-03-04T22:23:18.278Z,0.73
2019-03-04T22:27:38.202Z,0.60
2019-03-04T22:31:57.388Z,0.60
2019-03-04T22:36:16.162Z,0.90
2019-03-04T22:40:34.541Z,0.60
2019-03-04T22:44:52.864Z,0.80
2019-03-04T22:49:11.507Z,0.60
2019-03-04T22:53:31.027Z,0.77
2019-03-04T22:57:49.606Z,0.70
2019-03-04T23:02:08.618Z,0.80
2019-03-04T23:06:28.674Z,0.70
2019-03-04T23:10:50.105Z,0.80
2019-03-04T23:15:12.045Z,0.80
2019-03-04T23:19:30.209Z,0.80
2019-03-04T23:23:48.644Z,0.80
2019-03-04T23:28:07.027Z,0.70
2019-03-04T23:32:25.011Z,0.90
2019-03-04T23:36:43.321Z,0.80
2019-03-04T23:41:01.363Z,0.70
2019-03-04T23:45:19.633Z,0.70
2019-03-04T23:49:38.018Z,0.70
2019-03-04T23:53:56.152Z,0.60
2019-03-04T23:58:14.400Z,0.80
